Terminal Aerodrome Forecast
Issued by NWS

Home | Current Version | Previous Version | Text Only | Print | Product List | Glossary On
Versions: 1 2 3 4 5 6 7 8 9 10 11 12 13 14 15 16 17 18 19 20 21 22
000
FTUS44 KMAF 241018 AAC
TAFINK
TAF AMD
KINK 241018Z 2410/2506 15008KT P6SM OVC250
      TEMPO 2410/2414 VRB15G25KT 6SM TSRA BKN028CB
     FM241600 23010G20KT P6SM SCT030 BKN250
     FM250100 14008KT P6SM FEW029 OVC200=

USA.gov is the U.S. government's official web portal to all federal, state and local government web resources and services.